createdAt,value
2023-04-25T00:00:51.475Z,7.9
2023-04-25T00:01:52.975Z,7.9
2023-04-25T00:02:55.636Z,7.9
2023-04-25T00:04:00.495Z,7.9
2023-04-25T00:05:04.221Z,7.9
2023-04-25T00:06:05.901Z,7.9
2023-04-25T00:07:07.499Z,7.9
2023-04-25T00:08:09.072Z,7.9
2023-04-25T00:09:10.641Z,7.9
2023-04-25T00:10:12.230Z,7.9
2023-04-25T00:11:13.625Z,7.9
2023-04-25T00:12:15.138Z,7.8
2023-04-25T00:13:16.422Z,7.8
2023-04-25T00:14:17.934Z,7.8
2023-04-25T00:15:19.466Z,7.8
2023-04-25T00:16:20.936Z,7.8
2023-04-25T00:17:22.649Z,7.8
2023-04-25T00:18:24.447Z,7.8
2023-04-25T00:19:26.099Z,7.8
2023-04-25T00:20:27.648Z,7.8
2023-04-25T00:21:29.072Z,7.8
2023-04-25T00:22:30.647Z,7.8
2023-04-25T00:23:32.044Z,7.8
2023-04-25T00:24:33.465Z,7.8
2023-04-25T00:25:34.697Z,7.7
2023-04-25T00:26:36.234Z,7.8
2023-04-25T00:27:37.788Z,7.8
2023-04-25T00:28:39.477Z,7.8
2023-04-25T00:29:41.009Z,7.8
2023-04-25T00:30:42.312Z,7.8
2023-04-25T00:31:44.094Z,7.8
2023-04-25T00:32:46.006Z,7.8
2023-04-25T00:33:47.711Z,7.8
2023-04-25T00:34:49.202Z,7.8
2023-04-25T00:35:50.499Z,7.8
2023-04-25T00:36:52.137Z,7.7
2023-04-25T00:37:53.802Z,7.7
2023-04-25T00:38:55.338Z,7.7
2023-04-25T00:39:56.892Z,7.7
2023-04-25T00:40:58.265Z,7.7
2023-04-25T00:41:59.798Z,7.6
2023-04-25T00:43:01.223Z,7.5
2023-04-25T00:44:02.597Z,7.5
2023-04-25T00:45:03.932Z,7.4
2023-04-25T00:46:05.461Z,7.4
2023-04-25T00:47:07.320Z,7.3
2023-04-25T00:48:09.210Z,7.3
2023-04-25T00:49:10.700Z,7.2
2023-04-25T00:50:12.262Z,7.2
2023-04-25T00:51:13.812Z,7.2
2023-04-25T00:52:15.364Z,7.2
2023-04-25T00:53:17.031Z,7.2
2023-04-25T00:54:18.615Z,7.2
2023-04-25T00:55:19.935Z,7.2
2023-04-25T00:56:21.460Z,7.2
2023-04-25T00:57:22.734Z,7.2
2023-04-25T00:58:24.459Z,7.2
2023-04-25T00:59:25.833Z,7.2
2023-04-25T01:00:27.345Z,7.2
2023-04-25T01:01:29.613Z,7.2
2023-04-25T01:02:31.952Z,7.2
2023-04-25T01:03:34.543Z,7.2
2023-04-25T01:04:36.210Z,7.2
2023-04-25T01:05:37.759Z,7.2
2023-04-25T01:06:39.254Z,7.2
2023-04-25T01:07:40.783Z,7.2
2023-04-25T01:08:42.192Z,7.2
2023-04-25T01:09:43.766Z,7.2
2023-04-25T01:10:45.300Z,7.2
2023-04-25T01:11:46.591Z,7.2
2023-04-25T01:12:47.951Z,7.2
2023-04-25T01:13:51.197Z,7.2
2023-04-25T01:14:53.015Z,7.2
2023-04-25T01:15:54.611Z,7.2
2023-04-25T01:16:56.541Z,7.1
2023-04-25T01:17:58.312Z,7.1
2023-04-25T01:18:59.828Z,7.2
2023-04-25T01:20:01.333Z,7.2
2023-04-25T01:21:03.086Z,7.2
2023-04-25T01:22:04.466Z,7.2
2023-04-25T01:23:06.170Z,7.2
2023-04-25T01:24:07.533Z,7.2
2023-04-25T01:25:09.072Z,7.2
2023-04-25T01:26:10.450Z,7.2
2023-04-25T01:27:12.055Z,7.2
2023-04-25T01:28:13.599Z,7.2
2023-04-25T01:29:15.141Z,7.2
2023-04-25T01:30:16.596Z,7.2
2023-04-25T01:31:17.988Z,7.2
2023-04-25T01:32:20.083Z,7.2
2023-04-25T01:33:21.524Z,7.2
2023-04-25T01:34:23.065Z,7.2
2023-04-25T01:35:24.623Z,7.2
2023-04-25T01:36:26.152Z,7.2
2023-04-25T01:37:27.682Z,7.2
2023-04-25T01:38:29.205Z,7.2
2023-04-25T01:39:30.756Z,7.2
2023-04-25T01:40:32.274Z,7.2
2023-04-25T01:41:33.812Z,7.2
2023-04-25T01:42:35.398Z,7.2
2023-04-25T01:43:36.923Z,7.2
2023-04-25T01:44:38.528Z,7.2
2023-04-25T01:45:40.377Z,7.2
2023-04-25T01:46:42.317Z,7.2
2023-04-25T01:47:44.132Z,7.2
2023-04-25T01:48:45.303Z,7.2
2023-04-25T01:49:46.863Z,7.2
2023-04-25T01:50:48.312Z,7.2
2023-04-25T01:51:49.697Z,7.2
2023-04-25T01:52:51.107Z,7.2
2023-04-25T01:53:53.819Z,7.3
2023-04-25T01:54:55.331Z,7.3
2023-04-25T01:55:56.776Z,7.4
2023-04-25T01:56:58.309Z,7.4
2023-04-25T01:57:59.557Z,7.4
2023-04-25T01:59:01.156Z,7.4
2023-04-25T02:00:02.723Z,7.4
2023-04-25T02:01:04.753Z,7.4
2023-04-25T02:02:06.328Z,7.3
2023-04-25T02:03:08.936Z,7.2
2023-04-25T02:04:11.837Z,7.1
2023-04-25T02:05:13.305Z,7.1
2023-04-25T02:06:14.732Z,7.1
2023-04-25T02:07:16.229Z,7.1
2023-04-25T02:08:17.830Z,7.1
2023-04-25T02:09:19.376Z,7.1
2023-04-25T02:10:20.789Z,7.1
2023-04-25T02:11:22.267Z,7.1
2023-04-25T02:12:23.735Z,7.1
2023-04-25T02:13:25.132Z,7.1
2023-04-25T02:14:26.656Z,7.1
2023-04-25T02:15:28.217Z,7.1
2023-04-25T02:16:30.220Z,7.1
2023-04-25T02:17:31.801Z,7.1
2023-04-25T02:18:33.616Z,7.1
2023-04-25T02:19:35.170Z,7.1
2023-04-25T02:20:36.701Z,7.1
2023-04-25T02:21:38.264Z,7.1
2023-04-25T02:22:39.779Z,7.2
2023-04-25T02:23:41.177Z,7.2
2023-04-25T02:24:42.847Z,7.1
2023-04-25T02:25:44.461Z,7.2
2023-04-25T02:26:45.967Z,7.2
2023-04-25T02:27:47.404Z,7.2
2023-04-25T02:28:48.876Z,7.1
2023-04-25T02:29:50.374Z,7.1
2023-04-25T02:30:51.859Z,7.2
2023-04-25T02:31:54.009Z,7.1
2023-04-25T02:32:56.025Z,7.1
2023-04-25T02:33:57.581Z,7.1
2023-04-25T02:34:59.058Z,7.1
2023-04-25T02:36:00.560Z,7.1
2023-04-25T02:37:02.238Z,7.1
2023-04-25T02:38:03.818Z,7.1
2023-04-25T02:39:05.408Z,7.1
2023-04-25T02:40:06.831Z,7.1
2023-04-25T02:41:08.427Z,7.1
2023-04-25T02:42:09.812Z,7.1
2023-04-25T02:43:11.368Z,7.1
2023-04-25T02:44:12.746Z,7.1
2023-04-25T02:45:14.181Z,7.1
2023-04-25T02:46:39.890Z,7.1
2023-04-25T02:47:41.767Z,7.1
2023-04-25T02:48:43.334Z,7.2
2023-04-25T02:49:44.857Z,7.2
2023-04-25T02:50:46.350Z,7.2
2023-04-25T02:51:48.103Z,7.2
2023-04-25T02:52:49.675Z,7.2
2023-04-25T02:53:52.724Z,7.2
2023-04-25T02:54:54.424Z,7.2
2023-04-25T02:55:55.725Z,7.2
2023-04-25T02:56:57.232Z,7.2
2023-04-25T02:57:58.793Z,7.2
2023-04-25T02:59:00.344Z,7.2
2023-04-25T03:00:01.936Z,7.2
2023-04-25T03:01:03.898Z,7.2
2023-04-25T03:02:05.387Z,7.3
2023-04-25T03:03:07.537Z,7.3
2023-04-25T03:04:09.333Z,7.4
2023-04-25T03:05:10.882Z,7.5
2023-04-25T03:06:12.415Z,7.6
2023-04-25T03:07:13.912Z,7.7
2023-04-25T03:08:15.330Z,7.8
2023-04-25T03:09:16.935Z,7.8
2023-04-25T03:10:18.485Z,7.9
2023-04-25T03:11:20.019Z,7.9
2023-04-25T03:12:21.521Z,7.9
2023-04-25T03:13:23.011Z,7.9
2023-04-25T03:14:24.517Z,7.9
2023-04-25T03:15:26.002Z,7.9
2023-04-25T03:16:27.823Z,7.9
2023-04-25T03:17:29.249Z,7.9
2023-04-25T03:18:30.685Z,7.9
2023-04-25T03:19:32.102Z,7.9
2023-04-25T03:20:33.375Z,7.9
2023-04-25T03:21:34.780Z,7.9
2023-04-25T03:22:36.315Z,7.9
2023-04-25T03:23:37.897Z,7.9
2023-04-25T03:24:39.464Z,7.9
2023-04-25T03:25:40.979Z,7.9
2023-04-25T03:26:42.535Z,7.9
2023-04-25T03:27:44.116Z,7.9
2023-04-25T03:28:45.722Z,7.9
2023-04-25T03:29:47.467Z,7.9
2023-04-25T03:30:49.000Z,7.9
2023-04-25T03:31:50.845Z,7.9
2023-04-25T03:32:52.536Z,7.2
2023-04-25T03:33:54.673Z,7.4
2023-04-25T03:34:56.212Z,7.5
2023-04-25T03:35:57.574Z,7.6
2023-04-25T03:36:59.176Z,7.7
2023-04-25T03:38:00.611Z,7.8
2023-04-25T03:39:02.215Z,7.9
2023-04-25T03:40:03.775Z,7.9
2023-04-25T03:41:05.160Z,7.9
2023-04-25T03:42:06.720Z,7.9
2023-04-25T03:43:08.284Z,7.9
2023-04-25T03:44:09.691Z,7.9
2023-04-25T03:45:11.093Z,7.9
2023-04-25T03:46:13.339Z,7.3
2023-04-25T03:47:14.695Z,7.5
2023-04-25T03:48:16.277Z,7.6
2023-04-25T03:49:20.911Z,7.7
2023-04-25T03:50:22.341Z,7.9
2023-04-25T03:51:23.526Z,7.5
2023-04-25T03:52:25.071Z,7.7
2023-04-25T03:53:26.582Z,7.8
2023-04-25T03:54:27.914Z,7.9
2023-04-25T03:55:29.460Z,7.9
2023-04-25T03:56:30.874Z,7.9
2023-04-25T03:57:32.405Z,7.9
2023-04-25T03:58:33.821Z,7.9
2023-04-25T03:59:35.238Z,7.9
2023-04-25T04:00:36.645Z,7.9
2023-04-25T04:01:38.030Z,7.9
2023-04-25T04:02:45.396Z,7.9
2023-04-25T04:03:48.464Z,7.9
2023-04-25T04:04:52.591Z,7.9
2023-04-25T04:05:54.938Z,7.9
2023-04-25T04:06:56.365Z,7.9
2023-04-25T04:07:57.992Z,7.9
2023-04-25T04:08:59.538Z,7.9
2023-04-25T04:10:01.153Z,7.9
2023-04-25T04:11:02.614Z,7.9
2023-04-25T04:12:03.996Z,7.9
2023-04-25T04:13:05.597Z,7.9
2023-04-25T04:14:07.024Z,7.9
2023-04-25T04:15:08.688Z,7.9
2023-04-25T04:16:10.799Z,7.8
2023-04-25T04:17:12.464Z,7.8
2023-04-25T04:18:14.221Z,7.7
2023-04-25T04:19:15.701Z,7.6
2023-04-25T04:20:17.115Z,7.5
2023-04-25T04:21:18.479Z,7.3
2023-04-25T04:22:19.982Z,7.1
2023-04-25T04:23:21.614Z,7.1
2023-04-25T04:24:23.143Z,7.1
2023-04-25T04:25:24.558Z,7.1
2023-04-25T04:26:26.094Z,7.1
2023-04-25T04:27:27.516Z,7.1
2023-04-25T04:28:29.050Z,7.1
2023-04-25T04:29:30.576Z,7.1
2023-04-25T04:30:32.077Z,7.1
2023-04-25T04:31:33.752Z,7.1
2023-04-25T04:32:35.623Z,7.1
2023-04-25T04:33:37.213Z,7.1
2023-04-25T04:34:38.748Z,7.1
2023-04-25T04:35:40.244Z,7.1
2023-04-25T04:36:41.772Z,7.1
2023-04-25T04:37:43.289Z,7.1
2023-04-25T04:38:44.931Z,7.1
2023-04-25T04:39:46.393Z,7.1
2023-04-25T04:40:47.916Z,7.1
2023-04-25T04:41:49.479Z,7.2
2023-04-25T04:42:50.975Z,7.2
2023-04-25T04:43:53.840Z,7.2
2023-04-25T04:44:55.391Z,7.2
2023-04-25T04:45:56.985Z,7.2
2023-04-25T04:46:59.295Z,7.2
2023-04-25T04:48:01.167Z,7.2
2023-04-25T04:49:02.678Z,7.2
2023-04-25T04:50:04.324Z,7.2
2023-04-25T04:51:05.915Z,7.2
2023-04-25T04:52:07.487Z,7.2
2023-04-25T04:53:08.993Z,7.2
2023-04-25T04:54:10.574Z,7.2
2023-04-25T04:55:12.082Z,7.2
2023-04-25T04:56:13.619Z,7.2
2023-04-25T04:57:15.154Z,7.2
2023-04-25T04:58:20.329Z,7.2
2023-04-25T04:59:21.761Z,7.2
2023-04-25T05:00:23.413Z,7.2
2023-04-25T05:01:25.532Z,7.2
2023-04-25T05:02:27.782Z,7.2
2023-04-25T05:03:30.055Z,7.3
2023-04-25T05:04:32.241Z,7.3
2023-04-25T05:05:33.853Z,7.4
2023-04-25T05:06:35.363Z,7.4
2023-04-25T05:07:36.831Z,7.5
2023-04-25T05:08:38.370Z,7.6
2023-04-25T05:09:39.874Z,7.6
2023-04-25T05:10:41.384Z,7.7
2023-04-25T05:11:42.826Z,7.8
2023-04-25T05:12:44.374Z,7.9
2023-04-25T05:13:45.919Z,7.9
2023-04-25T05:14:47.509Z,7.2
2023-04-25T05:15:48.937Z,7.4
2023-04-25T05:16:50.929Z,7.5
2023-04-25T05:17:52.588Z,7.7
2023-04-25T05:18:54.325Z,7.8
2023-04-25T05:19:55.719Z,7.9
2023-04-25T05:20:57.117Z,7.9
2023-04-25T05:21:58.536Z,7.9
2023-04-25T05:23:00.096Z,7.9
2023-04-25T05:24:01.622Z,7.9
2023-04-25T05:25:02.999Z,7.9
2023-04-25T05:26:04.533Z,7.9
2023-04-25T05:27:06.140Z,7.9
2023-04-25T05:28:07.769Z,7.9
2023-04-25T05:29:09.211Z,7.9
2023-04-25T05:30:10.684Z,7.9
2023-04-25T05:31:12.361Z,7.9
2023-04-25T05:32:14.579Z,7.9
2023-04-25T05:33:16.358Z,7.9
2023-04-25T05:34:17.744Z,7.9
2023-04-25T05:35:19.607Z,7.9
2023-04-25T05:36:21.256Z,7.8
2023-04-25T05:37:22.814Z,7.8
2023-04-25T05:38:24.232Z,7.8
2023-04-25T05:39:25.778Z,7.8
2023-04-25T05:40:27.041Z,7.8
2023-04-25T05:41:28.318Z,7.9
2023-04-25T05:42:29.761Z,7.9
2023-04-25T05:43:31.232Z,7.9
2023-04-25T05:44:32.761Z,7.9
2023-04-25T05:45:34.123Z,7.9
2023-04-25T05:46:36.336Z,7.2
2023-04-25T05:47:38.174Z,7.3
2023-04-25T05:48:39.791Z,7.3
2023-04-25T05:49:41.293Z,7.4
2023-04-25T05:50:42.835Z,7.4
2023-04-25T05:51:44.327Z,7.4
2023-04-25T05:52:45.859Z,7.4
2023-04-25T05:53:47.573Z,7.4
2023-04-25T05:54:49.269Z,7.4
2023-04-25T05:55:50.666Z,7.3
2023-04-25T05:56:52.203Z,7.2
2023-04-25T05:57:53.790Z,7.2
2023-04-25T05:58:55.185Z,7.2
2023-04-25T05:59:56.717Z,7.1
2023-04-25T06:00:57.913Z,7.1
2023-04-25T06:01:59.664Z,7.2
2023-04-25T06:03:02.393Z,7.1
2023-04-25T06:04:07.056Z,7.1
2023-04-25T06:05:10.318Z,7.1
2023-04-25T06:06:11.950Z,7.1
2023-04-25T06:07:13.504Z,7.1
2023-04-25T06:08:14.929Z,7.1
2023-04-25T06:09:16.414Z,7.1
2023-04-25T06:10:17.915Z,7.1
2023-04-25T06:11:19.426Z,7.1
2023-04-25T06:12:21.012Z,7.1
2023-04-25T06:13:22.568Z,7.1
2023-04-25T06:14:24.817Z,7.1
2023-04-25T06:15:30.468Z,7.1
2023-04-25T06:16:32.832Z,7.1
2023-04-25T06:17:34.736Z,7.1
2023-04-25T06:18:36.370Z,7.1
2023-04-25T06:19:38.064Z,7.2
2023-04-25T06:20:39.637Z,7.1
2023-04-25T06:21:40.918Z,7.2
2023-04-25T06:22:42.188Z,7.2
2023-04-25T06:23:43.775Z,7.2
2023-04-25T06:24:45.368Z,7.2
2023-04-25T06:25:46.695Z,7.2
2023-04-25T06:26:48.224Z,7.2
2023-04-25T06:27:49.650Z,7.2
2023-04-25T06:28:51.139Z,7.2
2023-04-25T06:29:52.725Z,7.2
2023-04-25T06:30:54.457Z,7.3
2023-04-25T06:31:56.000Z,7.3
2023-04-25T06:32:57.862Z,7.4
2023-04-25T06:33:59.514Z,7.4
2023-04-25T06:35:01.124Z,7.5
2023-04-25T06:36:02.699Z,7.6
2023-04-25T06:37:04.294Z,7.7
2023-04-25T06:38:05.858Z,7.8
2023-04-25T06:39:07.337Z,7.8
2023-04-25T06:40:08.897Z,7.9
2023-04-25T06:41:10.280Z,7.9
2023-04-25T06:42:11.938Z,7.9
2023-04-25T06:43:13.243Z,7.9
2023-04-25T06:44:14.663Z,7.9
2023-04-25T06:45:16.103Z,7.9
2023-04-25T06:46:17.676Z,7.9
2023-04-25T06:47:19.103Z,7.9
2023-04-25T06:48:20.462Z,7.9
2023-04-25T06:49:22.049Z,7.9
2023-04-25T06:50:23.553Z,7.9
2023-04-25T06:51:25.849Z,7.9
2023-04-25T06:52:27.326Z,7.9
2023-04-25T06:53:28.864Z,7.9
2023-04-25T06:54:30.465Z,7.9
2023-04-25T06:55:32.031Z,7.9
2023-04-25T06:56:33.705Z,7.9
2023-04-25T06:57:35.307Z,7.9
2023-04-25T06:58:36.572Z,7.9
2023-04-25T06:59:38.098Z,7.7
2023-04-25T07:00:39.982Z,7.8
2023-04-25T07:01:41.676Z,7.9
2023-04-25T07:02:44.243Z,7.9
2023-04-25T07:03:47.052Z,7.9
2023-04-25T07:04:49.906Z,7.9
2023-04-25T07:05:51.506Z,7.9
2023-04-25T07:06:52.958Z,7.9
2023-04-25T07:07:54.549Z,7.2
2023-04-25T07:08:55.982Z,7.3
2023-04-25T07:09:57.523Z,7.4
2023-04-25T07:10:59.103Z,7.6
2023-04-25T07:12:00.616Z,7.7
2023-04-25T07:13:02.109Z,7.8
2023-04-25T07:14:03.776Z,7.9
2023-04-25T07:15:05.245Z,7.8
2023-04-25T07:16:06.839Z,7.8
2023-04-25T07:17:08.439Z,7.8
2023-04-25T07:18:10.194Z,7.7
2023-04-25T07:19:11.806Z,7.6
2023-04-25T07:20:13.336Z,7.4
2023-04-25T07:21:14.817Z,7.3
2023-04-25T07:22:16.225Z,7.2
2023-04-25T07:23:17.786Z,7.2
2023-04-25T07:24:19.334Z,7.1
2023-04-25T07:25:20.936Z,7.1
2023-04-25T07:26:22.476Z,7.2
2023-04-25T07:27:23.833Z,7.1
2023-04-25T07:28:25.229Z,7.1
2023-04-25T07:29:26.781Z,7.1
2023-04-25T07:30:28.357Z,7.1
2023-04-25T07:31:30.074Z,7.1
2023-04-25T07:32:31.697Z,7.1
2023-04-25T07:33:33.286Z,7.1
2023-04-25T07:34:34.857Z,7.1
2023-04-25T07:35:36.447Z,7.1
2023-04-25T07:36:38.204Z,7.1
2023-04-25T07:37:39.783Z,7.2
2023-04-25T07:38:41.379Z,7.2
2023-04-25T07:39:42.828Z,7.1
2023-04-25T07:40:44.290Z,7.2
2023-04-25T07:41:45.920Z,7.2
2023-04-25T07:42:47.581Z,7.2
2023-04-25T07:43:49.037Z,7.2
2023-04-25T07:44:50.577Z,7.2
2023-04-25T07:45:52.448Z,7.2
2023-04-25T07:46:54.022Z,7.2
2023-04-25T07:47:55.950Z,7.2
2023-04-25T07:48:57.531Z,7.3
2023-04-25T07:49:59.082Z,7.3
2023-04-25T07:51:00.678Z,7.4
2023-04-25T07:52:02.270Z,7.4
2023-04-25T07:53:03.837Z,7.5
2023-04-25T07:54:05.536Z,7.6
2023-04-25T07:55:07.202Z,7.7
2023-04-25T07:56:08.709Z,7.8
2023-04-25T07:57:10.313Z,7.8
2023-04-25T07:58:11.851Z,7.8
2023-04-25T07:59:13.284Z,7.9
2023-04-25T08:00:14.900Z,7.9
2023-04-25T08:01:16.492Z,7.9
2023-04-25T08:02:18.495Z,7.9
2023-04-25T08:03:21.810Z,7.9
2023-04-25T08:04:24.516Z,7.9
2023-04-25T08:05:27.581Z,7.9
2023-04-25T08:06:30.960Z,7.8
2023-04-25T08:07:32.677Z,7.9
2023-04-25T08:08:34.251Z,7.9
2023-04-25T08:09:35.554Z,7.8
2023-04-25T08:10:36.984Z,7.9
2023-04-25T08:11:38.605Z,7.9
2023-04-25T08:12:40.105Z,7.9
2023-04-25T08:13:41.685Z,7.9
2023-04-25T08:14:42.957Z,7.9
2023-04-25T08:15:44.891Z,7.9
2023-04-25T08:16:46.574Z,7.9
2023-04-25T08:17:48.540Z,7.9
2023-04-25T08:18:51.668Z,7.9
2023-04-25T08:19:53.545Z,7.9
2023-04-25T08:20:55.241Z,7.9
2023-04-25T08:21:56.858Z,7.9
2023-04-25T08:22:58.460Z,7.9
2023-04-25T08:24:00.344Z,7.9
2023-04-25T08:25:01.803Z,7.9
2023-04-25T08:26:03.293Z,7.9
2023-04-25T08:27:04.859Z,7.9
2023-04-25T08:28:06.506Z,7.9
2023-04-25T08:29:08.115Z,7.9
2023-04-25T08:30:09.716Z,7.9
2023-04-25T08:31:11.595Z,7.9
2023-04-25T08:32:13.204Z,7.9
2023-04-25T08:33:15.468Z,7.9
2023-04-25T08:34:17.072Z,7.9
2023-04-25T08:35:18.895Z,7.9
2023-04-25T08:44:52.694Z,7.9
2023-04-25T08:45:54.694Z,7.9
2023-04-25T08:46:56.567Z,7.6
2023-04-25T08:51:03.812Z,7.9
2023-04-25T08:52:05.405Z,7.9
2023-04-25T10:12:43.334Z,7.3
2023-04-25T10:13:44.889Z,7.2
2023-04-25T10:14:46.422Z,7.2
2023-04-25T10:15:48.284Z,7.2
2023-04-25T10:16:49.832Z,7.2
2023-04-25T10:17:51.488Z,7.1
2023-04-25T10:18:53.101Z,7.2
2023-04-25T10:19:54.635Z,7.1
2023-04-25T10:20:56.244Z,7.1
2023-04-25T10:21:57.898Z,7.1
2023-04-25T10:22:59.418Z,7.1
2023-04-25T10:24:00.965Z,7.1
2023-04-25T10:25:02.608Z,7.2
2023-04-25T10:26:04.210Z,7.1
2023-04-25T10:27:05.831Z,7.1
2023-04-25T10:28:07.429Z,7.1
2023-04-25T10:29:08.969Z,7.1
2023-04-25T10:30:10.482Z,7.1
2023-04-25T10:31:12.535Z,7.1
2023-04-25T10:32:14.872Z,7.1
2023-04-25T10:33:16.369Z,7.1
2023-04-25T10:34:17.980Z,7.2
2023-04-25T10:35:19.532Z,7.2
2023-04-25T10:36:21.159Z,7.2
2023-04-25T10:37:22.634Z,7.2
2023-04-25T10:38:24.063Z,7.2
2023-04-25T10:39:25.538Z,7.2
2023-04-25T10:40:27.136Z,7.2
2023-04-25T10:41:28.716Z,7.2
2023-04-25T10:42:30.417Z,7.2
2023-04-25T10:43:31.652Z,7.3
2023-04-25T10:44:33.368Z,7.3
2023-04-25T10:45:34.791Z,7.3
2023-04-25T10:46:36.748Z,7.4
2023-04-25T10:47:38.735Z,7.4
2023-04-25T10:48:40.177Z,7.5
2023-04-25T10:49:41.736Z,7.6
2023-04-25T10:50:43.320Z,7.6
2023-04-25T11:08:26.826Z,7.9
2023-04-25T11:09:28.633Z,7.9
2023-04-25T11:10:30.052Z,7.9
2023-04-25T11:11:31.525Z,7.9
2023-04-25T11:12:32.924Z,7.9
2023-04-25T11:13:34.420Z,7.9
2023-04-25T11:14:35.985Z,7.9
2023-04-25T11:15:37.492Z,7.9
2023-04-25T11:16:39.077Z,7.9
2023-04-25T11:17:41.405Z,7.9
2023-04-25T11:18:42.855Z,7.9
2023-04-25T11:19:44.441Z,7.9
2023-04-25T11:20:45.985Z,7.8
2023-04-25T11:21:47.382Z,7.9
2023-04-25T11:27:00.135Z,7.9
2023-04-25T11:28:01.772Z,7.9
2023-04-25T11:29:03.462Z,7.9
2023-04-25T11:30:05.027Z,7.9
2023-04-25T11:31:06.712Z,7.9
2023-04-25T11:32:08.634Z,7.9
2023-04-25T11:33:10.498Z,7.9
2023-04-25T11:34:12.053Z,7.9
2023-04-25T11:35:13.733Z,7.9
2023-04-25T11:36:15.149Z,7.9
2023-04-25T11:37:16.745Z,7.9
2023-04-25T11:38:18.444Z,7.9
2023-04-25T11:39:20.035Z,7.9
2023-04-25T11:40:21.642Z,7.9
2023-04-25T11:41:23.025Z,7.9
2023-04-25T11:42:24.917Z,7.7
2023-04-25T11:43:26.535Z,7.8
2023-04-25T11:44:28.004Z,7.8
2023-04-25T11:45:29.643Z,7.8
2023-04-25T11:46:31.867Z,7.8
2023-04-25T11:47:34.142Z,7.8
2023-04-25T11:48:35.720Z,7.8
2023-04-25T11:49:37.067Z,7.7
2023-04-25T11:50:38.625Z,7.6
2023-04-25T11:51:39.943Z,7.5
2023-04-25T11:52:41.523Z,7.4
2023-04-25T11:53:43.105Z,7.3
2023-04-25T11:54:44.620Z,7.1
2023-04-25T11:55:45.861Z,7.1
2023-04-25T11:56:47.412Z,7.2
2023-04-25T11:57:48.984Z,7.1
2023-04-25T11:58:50.471Z,7.1
2023-04-25T11:59:52.152Z,7.1
2023-04-25T12:00:53.371Z,7.1
2023-04-25T12:01:54.968Z,7.1
2023-04-25T12:02:57.701Z,7.1
2023-04-25T12:04:00.993Z,7.1
2023-04-25T13:35:58.861Z,7.9
2023-04-25T13:37:00.433Z,7.9
2023-04-25T13:38:02.013Z,7.9
2023-04-25T13:39:03.629Z,7.9
2023-04-25T13:40:05.250Z,7.9
2023-04-25T13:41:06.812Z,7.9
2023-04-25T13:42:08.142Z,7.9
2023-04-25T13:43:09.632Z,7.9
2023-04-25T13:44:11.434Z,7.9
2023-04-25T13:45:13.092Z,7.9
2023-04-25T13:57:42.780Z,7.1
2023-04-25T13:58:44.495Z,7.1
2023-04-25T13:59:45.944Z,7.1
2023-04-25T14:00:47.358Z,7.1
2023-04-25T14:01:49.184Z,7.1
2023-04-25T14:12:09.697Z,7.1
2023-04-25T14:22:28.433Z,7.2
2023-04-25T14:23:30.002Z,7.2
2023-04-25T14:24:31.456Z,7.2
2023-04-25T14:25:33.028Z,7.2
2023-04-25T14:26:34.604Z,7.2
2023-04-25T14:27:35.958Z,7.2
2023-04-25T14:28:37.533Z,7.2
2023-04-25T14:29:39.216Z,7.2
2023-04-25T14:30:40.765Z,7.2
2023-04-25T14:31:42.682Z,7.2
2023-04-25T14:32:44.572Z,7.2
2023-04-25T14:33:45.984Z,7.2
2023-04-25T14:34:47.448Z,7.3
2023-04-25T14:35:48.997Z,7.3
2023-04-25T14:36:50.467Z,7.3
2023-04-25T14:37:52.076Z,7.4
2023-04-25T14:38:53.610Z,7.4
2023-04-25T14:39:55.040Z,7.5
2023-04-25T14:40:56.506Z,7.6
2023-04-25T14:41:58.051Z,7.6
2023-04-25T14:42:59.585Z,7.7
2023-04-25T14:44:01.314Z,7.7
2023-04-25T14:45:02.871Z,7.8
2023-04-25T14:46:04.458Z,7.8
2023-04-25T14:47:06.550Z,7.8
2023-04-25T14:48:09.221Z,7.9
2023-04-25T14:49:10.737Z,7.9
2023-04-25T14:50:12.381Z,7.9
2023-04-25T14:51:13.869Z,7.9
2023-04-25T14:52:15.442Z,7.9
2023-04-25T14:53:17.064Z,7.9
2023-04-25T14:54:18.678Z,7.9
2023-04-25T14:55:20.263Z,7.9
2023-04-25T14:56:21.866Z,7.9
2023-04-25T14:57:23.478Z,7.9
2023-04-25T14:58:24.946Z,7.6
2023-04-25T14:59:26.464Z,7.8
2023-04-25T15:00:28.099Z,7.8
2023-04-25T15:01:30.076Z,7.9
2023-04-25T15:02:32.260Z,7.3
2023-04-25T15:03:35.347Z,7.3
2023-04-25T15:04:37.888Z,7.5
2023-04-25T15:05:39.558Z,7.6
2023-04-25T15:06:41.130Z,7.8
2023-04-25T15:07:42.720Z,7.9
2023-04-25T15:08:44.303Z,7.9
2023-04-25T15:09:45.884Z,7.9
2023-04-25T15:10:47.321Z,7.7
2023-04-25T15:11:48.949Z,7.8
2023-04-25T15:12:50.526Z,7.9
2023-04-25T15:13:54.690Z,7.9
2023-04-25T15:14:56.221Z,7.9
2023-04-25T15:15:57.917Z,7.9
2023-04-25T15:17:00.124Z,7.9
2023-04-25T15:18:02.024Z,7.9
2023-04-25T15:19:03.631Z,7.9
2023-04-25T15:20:05.112Z,7.9
2023-04-25T15:21:06.760Z,7.9
2023-04-25T15:22:08.493Z,7.9
2023-04-25T15:23:10.092Z,7.9
2023-04-25T15:24:11.608Z,7.9
2023-04-25T15:25:13.174Z,7.9
2023-04-25T15:26:14.742Z,7.9
2023-04-25T15:27:16.300Z,7.9
2023-04-25T15:28:17.958Z,7.9
2023-04-25T15:29:19.586Z,7.9
2023-04-25T15:30:21.140Z,7.9
2023-04-25T15:31:23.110Z,7.9
2023-04-25T15:32:25.662Z,7.9
2023-04-25T15:33:27.589Z,7.9
2023-04-25T15:34:29.160Z,7.9
2023-04-25T15:35:30.565Z,7.4
2023-04-25T15:36:32.021Z,7.4
2023-04-25T15:37:33.356Z,7.5
2023-04-25T15:38:35.061Z,7.6
2023-04-25T15:39:36.650Z,7.7
2023-04-25T15:40:38.191Z,7.7
2023-04-25T15:41:39.734Z,7.8
2023-04-25T15:42:41.293Z,7.8
2023-04-25T15:43:42.695Z,7.8
2023-04-25T15:44:44.018Z,7.9
2023-04-25T15:45:45.726Z,7.9
2023-04-25T15:46:47.353Z,7.8
2023-04-25T15:47:49.080Z,7.7
2023-04-25T15:48:50.632Z,7.7
2023-04-25T15:49:52.177Z,7.6
2023-04-25T15:50:53.694Z,7.5
2023-04-25T15:51:55.128Z,7.3
2023-04-25T15:52:56.728Z,7.2
2023-04-25T15:53:58.005Z,7.1
2023-04-25T15:54:59.450Z,7.1
2023-04-25T15:56:01.071Z,7.1
2023-04-25T15:57:02.418Z,7.1
2023-04-25T15:58:04.021Z,7.1
2023-04-25T15:59:05.440Z,7.1
2023-04-25T16:00:06.949Z,7.1
2023-04-25T16:01:08.787Z,7.1
2023-04-25T16:02:10.594Z,7.1
2023-04-25T16:03:13.450Z,7.1
2023-04-25T16:04:16.994Z,7.1
2023-04-25T16:05:20.018Z,7.1
2023-04-25T16:06:21.747Z,7.1
2023-04-25T16:07:23.296Z,7.1
2023-04-25T16:08:24.878Z,7.1
2023-04-25T16:09:26.408Z,7.1
2023-04-25T16:10:27.974Z,7.1
2023-04-25T16:11:29.534Z,7.1
2023-04-25T16:12:31.102Z,7.1
2023-04-25T16:13:32.712Z,7.1
2023-04-25T16:14:34.121Z,7.1
2023-04-25T16:15:37.479Z,7.2
2023-04-25T16:16:39.710Z,7.2
2023-04-25T16:17:41.720Z,7.2
2023-04-25T16:18:43.181Z,7.2
2023-04-25T16:19:44.791Z,7.2
2023-04-25T16:20:46.410Z,7.2
2023-04-25T16:21:48.202Z,7.2
2023-04-25T16:22:49.683Z,7.2
2023-04-25T16:23:53.096Z,7.2
2023-04-25T16:24:54.450Z,7.2
2023-04-25T16:25:55.875Z,7.3
2023-04-25T16:26:57.339Z,7.3
2023-04-25T16:27:58.925Z,7.3
2023-04-25T16:29:00.484Z,7.3
2023-04-25T16:30:01.951Z,7.3
2023-04-25T16:31:05.279Z,7.4
2023-04-25T16:32:07.294Z,7.4
2023-04-25T16:33:09.358Z,7.5
2023-04-25T16:34:11.085Z,7.5
2023-04-25T16:39:20.172Z,7.9
2023-04-25T16:40:21.657Z,7.9
2023-04-25T16:41:23.187Z,7.9
2023-04-25T16:42:24.476Z,7.9
2023-04-25T16:43:26.339Z,7.9
2023-04-25T16:44:28.118Z,7.9
2023-04-25T16:45:29.563Z,7.9
2023-04-25T16:46:31.425Z,7.9
2023-04-25T16:47:33.543Z,7.9
2023-04-25T16:48:35.127Z,7.9
2023-04-25T16:49:36.768Z,7.9
2023-04-25T16:50:38.363Z,7.9
2023-04-25T16:51:39.907Z,7.9
2023-04-25T16:54:48.409Z,7.9
2023-04-25T16:55:50.229Z,7.9
2023-04-25T16:56:51.853Z,7.9
2023-04-25T16:57:53.432Z,7.9
2023-04-25T16:59:57.248Z,7.9
2023-04-25T17:00:59.161Z,7.8
2023-04-25T17:02:01.182Z,7.8
2023-04-25T17:08:12.914Z,7.8
2023-04-25T17:09:14.533Z,7.8
2023-04-25T17:10:16.110Z,7.8
2023-04-25T17:11:17.751Z,7.8
2023-04-25T17:12:19.436Z,7.8
2023-04-25T17:13:21.144Z,7.8
2023-04-25T17:34:03.594Z,7.9
2023-04-25T17:35:05.221Z,7.7
2023-04-25T17:36:06.546Z,7.9
2023-04-25T17:37:08.183Z,7.8
2023-04-25T17:38:10.477Z,7.9
2023-04-25T17:39:11.961Z,7.9
2023-04-25T17:40:13.762Z,7.9
2023-04-25T17:41:15.439Z,7.9
2023-04-25T17:42:16.900Z,7.9
2023-04-25T17:43:18.391Z,7.2
2023-04-25T17:44:20.019Z,7.2
2023-04-25T17:45:21.517Z,7.2
2023-04-25T17:46:23.389Z,7.2
2023-04-25T17:47:25.223Z,7.2
2023-04-25T17:48:26.568Z,7.2
2023-04-25T17:49:28.153Z,7.1
2023-04-25T17:50:29.503Z,7.1
2023-04-25T17:51:31.034Z,7.1
2023-04-25T17:52:32.607Z,7.1
2023-04-25T17:53:34.178Z,7.1
2023-04-25T17:54:35.472Z,7.1
2023-04-25T17:55:37.115Z,7.1
2023-04-25T17:56:38.807Z,7.1
2023-04-25T17:57:40.373Z,7.1
2023-04-25T17:58:41.849Z,7.1
2023-04-25T17:59:43.382Z,7.1
2023-04-25T18:00:44.928Z,7.1
2023-04-25T18:01:49.811Z,7.1
2023-04-25T18:02:51.897Z,7.1
2023-04-25T18:03:55.090Z,7.1
2023-04-25T18:04:56.972Z,7.1
2023-04-25T18:05:58.564Z,7.1
2023-04-25T18:07:00.114Z,7.1
2023-04-25T18:08:01.769Z,7.1
2023-04-25T18:09:03.359Z,7.1
2023-04-25T18:10:04.562Z,7.1
2023-04-25T18:11:06.032Z,7.1
2023-04-25T18:12:07.501Z,7.2
2023-04-25T18:13:09.161Z,7.2
2023-04-25T18:14:10.699Z,7.2
2023-04-25T18:15:12.104Z,7.2
2023-04-25T18:16:13.843Z,7.2
2023-04-25T18:17:15.189Z,7.2
2023-04-25T18:18:17.196Z,7.2
2023-04-25T18:19:18.653Z,7.2
2023-04-25T18:20:20.262Z,7.3
2023-04-25T18:21:21.910Z,7.4
2023-04-25T18:22:23.503Z,7.5
2023-04-25T18:23:25.081Z,7.6
2023-04-25T18:24:26.666Z,7.7
2023-04-25T18:25:28.222Z,7.8
2023-04-25T18:26:32.545Z,7.9
2023-04-25T18:27:34.116Z,7.9
2023-04-25T18:28:35.865Z,7.9
2023-04-25T18:29:37.476Z,7.7
2023-04-25T18:30:39.077Z,7.8
2023-04-25T18:31:41.081Z,7.9
2023-04-25T18:32:42.775Z,7.9
2023-04-25T18:33:44.234Z,7.9
2023-04-25T18:34:45.559Z,7.9
2023-04-25T18:42:07.474Z,7.9